Time;durP1;ratioP1;P1;durP2;ratioP2;P2;SDS_P1;SDS_P2;PMS_P1;PMS_P2;Temp;Humidity;BMP_temperature;BMP_pressure;BME280_temperature;BME280_humidity;BME280_pressure;Samples;Min_cycle;Max_cycle;Signal;HPM_P1;HPM_P2
2022/09/07 00:01:24;;;;;;;6.78;0.85;;;;;;;16.05;73.35;99452.34;5013442;28;20052;-90
2022/09/07 00:03:56;;;;;;;8.32;1.20;;;;;;;16.00;74.25;99451.63;5012131;28;20675;-90
2022/09/07 00:06:23;;;;;;;5.70;0.90;;;;;;;16.06;73.76;99448.81;5013352;28;21560;-89
2022/09/07 00:08:50;;;;;;;5.40;0.73;;;;;;;16.04;74.08;99445.41;5007786;28;21470;-89
2022/09/07 00:11:19;;;;;;;4.10;0.68;;;;;;;16.09;74.26;99442.63;5013231;28;20046;-90
2022/09/07 00:13:47;;;;;;;;;;;;;;;15.93;74.68;99441.38;5015730;28;20065;-91
2022/09/07 00:18:54;;;;;;;4.47;0.90;;;;;;;16.09;74.30;99440.00;5048846;27;20411;-39
2022/09/07 00:21:20;;;;;;;5.00;0.88;;;;;;;16.08;73.82;99438.31;5014762;28;20057;-40
2022/09/07 00:23:48;;;;;;;5.25;1.13;;;;;;;16.11;73.67;99433.81;5014953;28;20661;-42
2022/09/07 00:26:19;;;;;;;7.47;1.40;;;;;;;16.12;73.94;99432.94;5019157;28;20730;-39
2022/09/07 00:28:46;;;;;;;2.80;0.80;;;;;;;16.14;73.91;99423.28;5015502;28;20564;-41
2022/09/07 00:31:16;;;;;;;4.07;1.00;;;;;;;16.14;73.50;99420.66;5014031;28;20049;-39
2022/09/07 00:33:43;;;;;;;4.10;0.98;;;;;;;16.14;73.70;99418.03;5015344;28;20058;-42
2022/09/07 00:36:10;;;;;;;4.97;0.85;;;;;;;16.13;73.63;99424.19;4998424;28;20053;-39
2022/09/07 00:38:37;;;;;;;3.90;0.60;;;;;;;16.11;73.68;99423.38;5015172;28;20049;-39
2022/09/07 00:41:04;;;;;;;5.50;0.80;;;;;;;16.08;73.61;99422.66;5017708;28;20049;-38
2022/09/07 00:43:37;;;;;;;6.00;1.00;;;;;;;16.06;73.55;99425.31;5017387;28;20099;-39
2022/09/07 00:46:09;;;;;;;3.78;0.82;;;;;;;16.05;73.53;99423.63;5013210;28;20446;-41
2022/09/07 00:48:43;;;;;;;2.33;0.60;;;;;;;16.05;73.63;99413.16;5017658;28;20538;-40
2022/09/07 00:51:17;;;;;;;5.43;0.90;;;;;;;16.03;73.84;99420.19;5017525;28;20505;-39
2022/09/07 00:53:52;;;;;;;2.85;0.88;;;;;;;16.01;73.85;99416.78;5013701;28;20061;-39
2022/09/07 00:56:22;;;;;;;2.72;1.15;;;;;;;16.02;74.28;99421.97;5017641;28;20053;-44
2022/09/07 00:58:50;;;;;;;4.63;1.63;;;;;;;16.01;74.18;99428.06;5014773;28;20560;-38
2022/09/07 01:01:17;;;;;;;3.33;0.98;;;;;;;15.98;74.18;99419.50;5015684;28;20107;-40
2022/09/07 01:03:47;;;;;;;4.93;1.05;;;;;;;15.99;74.08;99416.84;5011824;28;20085;-40
2022/09/07 01:06:25;;;;;;;4.05;1.08;;;;;;;15.94;74.13;99411.75;5016776;28;20053;-42
2022/09/07 01:08:55;;;;;;;5.63;0.65;;;;;;;15.96;73.53;99413.47;5008852;28;20052;-41
2022/09/07 01:11:22;;;;;;;7.90;1.13;;;;;;;15.94;73.79;99406.53;5016226;28;20066;-47
2022/09/07 01:13:50;;;;;;;5.85;1.33;;;;;;;15.94;73.72;99403.91;5012131;28;20178;-42
2022/09/07 01:16:48;;;;;;;11.90;1.95;;;;;;;15.89;73.82;99400.63;5011567;28;20103;-38
2022/09/07 01:19:54;;;;;;;4.22;0.90;;;;;;;15.82;73.66;99406.97;5016019;28;20527;-46
2022/09/07 01:30:54;;;;;;;10.15;2.00;;;;;;;16.11;73.28;99407.69;5042472;28;20438;-37
2022/09/07 01:39:03;;;;;;;6.53;1.60;;;;;;;15.75;74.47;99402.84;5097331;27;20435;-40
2022/09/07 01:41:41;;;;;;;7.68;1.80;;;;;;;15.69;74.74;99403.91;5046158;28;20077;-39
2022/09/07 01:47:01;;;;;;;6.50;1.95;;;;;;;15.63;74.82;99398.91;5014449;28;20391;-43
2022/09/07 01:49:51;;;;;;;9.23;2.40;;;;;;;15.54;74.80;99402.69;4999533;28;20104;-39
2022/09/07 01:52:43;;;;;;;6.80;2.28;;;;;;;15.58;74.41;99404.28;5013826;28;20057;-39
2022/09/07 01:55:18;;;;;;;8.10;2.13;;;;;;;15.50;75.75;99412.38;4997633;28;20061;-43
2022/09/07 01:57:52;;;;;;;7.82;2.45;;;;;;;15.54;75.42;99419.19;5001223;28;20058;-39
2022/09/07 02:00:23;;;;;;;4.95;2.45;;;;;;;15.54;75.97;99413.97;5001228;28;20053;-46
2022/09/07 02:02:58;;;;;;;8.15;2.75;;;;;;;15.56;75.93;99419.13;4999173;28;20050;-40
2022/09/07 02:05:33;;;;;;;9.45;2.70;;;;;;;15.58;76.30;99413.88;4994718;28;20086;-44
2022/09/07 02:08:07;;;;;;;6.97;2.28;;;;;;;15.63;76.01;99412.81;4991485;28;20497;-38
2022/09/07 02:10:39;;;;;;;7.50;3.15;;;;;;;15.68;76.02;99404.84;4992549;28;20054;-38
2022/09/07 02:13:15;;;;;;;11.25;3.25;;;;;;;15.67;76.33;99405.72;4995229;28;20062;-42
2022/09/07 02:18:32;;;;;;;6.53;1.85;;;;;;;15.73;76.78;99409.88;5052242;28;20417;-40
2022/09/07 02:21:01;;;;;;;5.15;1.98;;;;;;;15.72;76.49;99410.78;5013838;28;20119;-41
2022/09/07 02:23:33;;;;;;;6.00;1.80;;;;;;;15.75;76.57;99405.47;5009163;28;20050;-39
2022/09/07 02:26:05;;;;;;;9.20;1.67;;;;;;;15.74;76.78;99409.00;5008898;28;20050;-41
2022/09/07 02:28:34;;;;;;;7.18;2.00;;;;;;;15.66;76.67;99404.88;5010690;28;20568;-39
2022/09/07 02:31:01;;;;;;;13.35;2.08;;;;;;;15.68;76.91;99405.66;5009731;28;20042;-40
2022/09/07 02:33:28;;;;;;;6.20;1.63;;;;;;;15.67;77.02;99405.72;5009212;28;20057;-39
2022/09/07 02:35:55;;;;;;;8.48;2.33;;;;;;;15.70;77.20;99397.78;5011124;28;20054;-41
2022/09/07 02:38:23;;;;;;;5.65;1.95;;;;;;;15.72;77.07;99395.13;5012572;28;21392;-39
2022/09/07 02:40:53;;;;;;;10.48;2.60;;;;;;;15.71;77.11;99396.91;5011222;28;20112;-40
2022/09/07 02:43:22;;;;;;;9.20;2.60;;;;;;;15.72;77.13;99384.69;5016780;28;20201;-40
2022/09/07 02:46:22;;;;;;;9.50;2.10;;;;;;;15.65;77.17;99390.13;5016109;28;20108;-37
2022/09/07 02:49:02;;;;;;;9.00;2.20;;;;;;;15.66;76.91;99386.59;5019638;28;20202;-38
2022/09/07 02:57:36;;;;;;;5.97;1.80;;;;;;;15.58;77.51;99372.09;5051069;28;20391;-40
2022/09/07 03:05:22;;;;;;;6.75;2.50;;;;;;;15.63;77.36;99371.03;5003142;28;20401;-43
2022/09/07 03:08:13;;;;;;;6.85;2.55;;;;;;;15.62;77.68;99374.56;4991313;28;20148;-39
2022/09/07 03:10:40;;;;;;;10.25;2.85;;;;;;;15.58;77.99;99374.72;5001056;28;20050;-39
2022/09/07 03:13:07;;;;;;;8.77;2.60;;;;;;;15.62;77.74;99373.69;4991514;28;20054;-39
2022/09/07 03:15:33;;;;;;;5.93;2.55;;;;;;;15.63;77.75;99375.41;4996580;28;20058;-40
2022/09/07 03:18:00;;;;;;;13.43;3.05;;;;;;;15.61;78.00;99362.44;4994625;28;20061;-38
2022/09/07 03:20:26;;;;;;;7.07;3.33;;;;;;;15.60;77.92;99368.53;4986997;28;20544;-42
2022/09/07 03:22:53;;;;;;;11.38;3.40;;;;;;;15.65;77.56;99358.81;4994348;28;20104;-40
2022/09/07 03:25:21;;;;;;;6.03;2.25;;;;;;;15.63;77.63;99360.59;4989774;28;20120;-41
2022/09/07 03:27:48;;;;;;;8.57;3.28;;;;;;;15.65;77.47;99355.34;4997826;28;20116;-39
2022/09/07 03:30:14;;;;;;;7.20;3.78;;;;;;;15.66;77.49;99350.06;4993383;28;20062;-39
2022/09/07 03:32:41;;;;;;;11.63;4.22;;;;;;;15.68;77.45;99348.22;4997424;28;20062;-40
2022/09/07 03:35:08;;;;;;;13.77;3.55;;;;;;;15.67;77.79;99356.97;4996053;28;20120;-39
2022/09/07 03:37:35;;;;;;;8.88;3.72;;;;;;;15.68;78.02;99361.28;4993392;28;20065;-39
2022/09/07 03:40:05;;;;;;;11.93;3.40;;;;;;;15.70;78.07;99344.75;4997681;28;20046;-41
2022/09/07 03:42:32;;;;;;;9.60;3.50;;;;;;;15.66;78.79;99344.84;4997756;28;20105;-41
2022/09/07 03:44:58;;;;;;;13.02;3.70;;;;;;;15.70;78.41;99355.19;4997122;28;20132;-39
2022/09/07 03:47:25;;;;;;;7.93;3.60;;;;;;;15.69;78.96;99354.31;4997708;28;20050;-41
2022/09/07 03:49:52;;;;;;;6.35;3.35;;;;;;;15.70;79.04;99355.19;4997242;28;20127;-40
2022/09/07 03:52:18;;;;;;;7.07;4.00;;;;;;;15.70;78.94;99339.53;4998702;28;20097;-46
2022/09/07 03:54:45;;;;;;;12.43;3.53;;;;;;;15.68;78.82;99345.63;4999329;28;20047;-40
2022/09/07 03:57:12;;;;;;;7.68;3.25;;;;;;;15.68;78.81;99343.00;4996937;28;20050;-37
2022/09/07 03:59:38;;;;;;;10.50;4.30;;;;;;;15.71;78.67;99346.44;4993146;28;20057;-41
2022/09/07 04:02:05;;;;;;;7.25;2.88;;;;;;;15.75;78.64;99353.25;4999353;28;20058;-40
2022/09/07 04:04:32;;;;;;;9.43;3.10;;;;;;;15.77;78.54;99354.06;4997564;28;20058;-39
2022/09/07 04:06:59;;;;;;;9.35;3.25;;;;;;;15.81;78.59;99353.03;4996150;28;20076;-42
2022/09/07 04:09:25;;;;;;;8.98;3.75;;;;;;;15.80;78.89;99352.19;4995407;28;20128;-37
2022/09/07 04:11:52;;;;;;;7.50;3.47;;;;;;;15.86;78.48;99347.63;4988629;28;20049;-38
2022/09/07 04:14:19;;;;;;;9.02;3.40;;;;;;;15.87;78.28;99358.03;4989073;28;20046;-41
2022/09/07 04:16:45;;;;;;;8.85;2.90;;;;;;;15.90;78.42;99357.94;4975933;28;20046;-38
2022/09/07 04:19:12;;;;;;;5.50;2.58;;;;;;;15.90;78.79;99357.06;4974912;28;20128;-40
2022/09/07 04:21:39;;;;;;;10.40;2.80;;;;;;;15.89;79.00;99358.84;4978945;28;20050;-46
2022/09/07 04:24:06;;;;;;;9.88;2.83;;;;;;;15.91;79.26;99350.94;4978475;28;20743;-40
2022/09/07 04:26:35;;;;;;;19.25;3.75;;;;;;;15.89;79.05;99345.78;4976569;28;20065;-45
2022/09/07 04:29:02;;;;;;;5.72;2.95;;;;;;;15.89;78.49;99351.00;4976813;28;20054;-42
2022/09/07 04:31:29;;;;;;;7.55;1.70;;;;;;;15.88;79.28;99348.44;4976631;28;20606;-41
2022/09/07 04:33:56;;;;;;;9.18;2.53;;;;;;;15.89;79.33;99345.78;4974902;28;20054;-41
2022/09/07 04:36:24;;;;;;;9.13;3.13;;;;;;;15.89;79.53;99356.22;4976749;28;20050;-46
2022/09/07 04:38:55;;;;;;;6.45;3.15;;;;;;;15.90;78.90;99350.09;4979260;28;20058;-43
2022/09/07 04:41:22;;;;;;;6.35;3.05;;;;;;;15.91;79.50;99345.72;4980471;28;20108;-41
2022/09/07 04:43:53;;;;;;;11.68;3.20;;;;;;;15.95;78.76;99349.97;4972467;28;20050;-39
2022/09/07 04:48:59;;;;;;;13.50;3.30;;;;;;;15.98;78.75;99343.78;5051795;27;20726;-43
2022/09/07 04:51:28;;;;;;;11.10;2.13;;;;;;;15.96;78.68;99345.56;4986784;28;20055;-40
2022/09/07 04:53:56;;;;;;;9.18;1.63;;;;;;;16.00;78.67;99341.94;4985267;28;20054;-40
2022/09/07 04:56:23;;;;;;;5.45;2.38;;;;;;;15.99;79.34;99345.47;4982047;28;20414;-38
2022/09/07 04:58:50;;;;;;;7.75;2.15;;;;;;;16.00;78.90;99347.16;4981757;28;20109;-40
2022/09/07 05:01:20;;;;;;;13.85;2.35;;;;;;;16.03;79.02;99344.44;4980435;28;20042;-39
2022/09/07 05:03:47;;;;;;;10.63;1.85;;;;;;;16.01;78.69;99344.50;4984262;28;20153;-41
2022/09/07 05:06:16;;;;;;;6.15;1.85;;;;;;;16.04;78.95;99343.53;4975814;28;20474;-41
2022/09/07 05:08:46;;;;;;;7.00;2.28;;;;;;;16.00;79.55;99352.38;4976616;28;20094;-40
2022/09/07 05:11:14;;;;;;;13.85;2.60;;;;;;;16.01;79.51;99348.88;4979706;28;20116;-39
2022/09/07 05:13:41;;;;;;;5.88;2.17;;;;;;;16.07;79.02;99353.88;4996257;28;20053;-42
2022/09/07 05:16:12;;;;;;;5.63;2.25;;;;;;;16.10;79.19;99348.53;4992374;28;20129;-39
2022/09/07 05:18:38;;;;;;;5.63;2.05;;;;;;;16.07;79.08;99353.88;4971825;28;20109;-39
2022/09/07 05:21:15;;;;;;;6.43;2.10;;;;;;;16.08;78.80;99350.38;4975724;28;20054;-43
2022/09/07 05:23:42;;;;;;;7.82;2.00;;;;;;;16.10;78.69;99359.00;4972807;28;20047;-41
2022/09/07 05:26:10;;;;;;;9.60;2.28;;;;;;;16.12;78.78;99362.41;4975694;28;20054;-37
2022/09/07 05:28:38;;;;;;;6.18;2.08;;;;;;;16.16;78.63;99357.91;4972137;28;20053;-38
2022/09/07 05:31:08;;;;;;;7.22;2.35;;;;;;;16.17;78.51;99359.59;4975948;28;20226;-41
2022/09/07 05:33:47;;;;;;;8.05;1.50;;;;;;;16.16;79.04;99357.91;4972080;28;20055;-43
2022/09/07 05:36:34;;;;;;;5.70;1.65;;;;;;;16.18;78.30;99361.34;4974926;28;20611;-37
2022/09/07 05:39:01;;;;;;;9.70;1.60;;;;;;;16.18;78.40;99351.72;4973785;28;20061;-38
2022/09/07 05:41:27;;;;;;;5.22;1.02;;;;;;;16.21;78.38;99344.69;4970554;28;20165;-41
2022/09/07 05:43:54;;;;;;;8.82;1.55;;;;;;;16.18;78.05;99356.94;4974531;28;20058;-40
2022/09/07 05:46:41;;;;;;;11.32;1.45;;;;;;;16.18;78.12;99356.94;4980339;28;20129;-40
2022/09/07 05:49:08;;;;;;;7.93;2.05;;;;;;;16.15;78.08;99357.03;4982928;28;20053;-39
2022/09/07 05:51:36;;;;;;;5.63;1.35;;;;;;;16.16;78.20;99364.00;4982471;28;20062;-41
2022/09/07 05:54:03;;;;;;;15.55;1.92;;;;;;;16.17;78.08;99364.84;4980854;28;20097;-44
2022/09/07 05:56:33;;;;;;;8.73;2.13;;;;;;;16.19;77.97;99371.69;4981540;28;20058;-38
2022/09/07 05:58:59;;;;;;;9.82;1.77;;;;;;;16.21;78.09;99368.19;4976128;28;20050;-38
2022/09/07 06:01:26;;;;;;;5.90;2.30;;;;;;;16.25;77.93;99369.78;4965620;28;20058;-42
2022/09/07 06:03:53;;;;;;;10.75;1.83;;;;;;;16.27;78.23;99365.34;4965485;28;20050;-40
2022/09/07 06:06:20;;;;;;;8.75;1.42;;;;;;;16.30;77.98;99365.22;4962483;28;20077;-42
2022/09/07 06:08:49;;;;;;;10.85;1.65;;;;;;;16.30;77.64;99360.00;4957574;28;20719;-42
2022/09/07 06:11:19;;;;;;;10.98;1.65;;;;;;;16.30;77.57;99378.28;4957066;28;21929;-41
2022/09/07 06:13:46;;;;;;;6.95;1.80;;;;;;;16.22;78.58;99368.16;4966394;28;20058;-42
2022/09/07 06:16:13;;;;;;;10.13;2.13;;;;;;;16.29;78.47;99369.63;4962974;28;20198;-43
2022/09/07 06:18:43;;;;;;;9.27;1.40;;;;;;;16.30;78.12;99376.53;4956913;28;20055;-36
2022/09/07 06:21:14;;;;;;;8.20;1.65;;;;;;;16.32;77.07;99373.88;4962399;28;20063;-39
2022/09/07 06:23:42;;;;;;;10.27;1.80;;;;;;;16.31;77.11;99372.16;4957164;28;20113;-48
2022/09/07 06:26:09;;;;;;;6.70;1.40;;;;;;;16.30;77.58;99370.44;4958528;28;20086;-39
2022/09/07 06:28:39;;;;;;;10.98;1.83;;;;;;;16.29;77.54;99380.06;4959074;28;20537;-42
2022/09/07 06:31:09;;;;;;;6.90;1.77;;;;;;;16.30;77.44;99384.38;4969200;28;20108;-43
2022/09/07 06:33:35;;;;;;;10.27;1.30;;;;;;;16.33;77.30;99386.03;4957683;28;20109;-41
2022/09/07 06:36:04;;;;;;;8.75;1.25;;;;;;;16.35;77.67;99389.41;4965538;28;20059;-44
2022/09/07 06:38:33;;;;;;;7.22;1.40;;;;;;;16.39;77.75;99385.81;4965319;28;20050;-43
2022/09/07 06:41:03;;;;;;;6.30;1.52;;;;;;;16.43;77.14;99391.75;4978703;28;20061;-37
2022/09/07 06:43:50;;;;;;;5.63;1.40;;;;;;;16.47;76.94;99384.63;4978935;28;20755;-39
2022/09/07 06:46:16;;;;;;;11.35;1.35;;;;;;;16.51;77.47;99387.09;4978088;28;20541;-39
2022/09/07 06:49:03;;;;;;;11.68;1.48;;;;;;;16.55;76.50;99385.22;4966814;28;20062;-37
2022/09/07 06:51:31;;;;;;;10.27;1.30;;;;;;;16.57;77.11;99386.00;4965274;28;20073;-38
2022/09/07 06:54:00;;;;;;;4.72;0.93;;;;;;;16.58;76.66;99380.72;4963038;28;20479;-39
2022/09/07 06:56:47;;;;;;;14.80;1.70;;;;;;;16.63;77.00;99385.78;4967782;28;20447;-43
2022/09/07 06:59:13;;;;;;;6.18;1.02;;;;;;;16.71;76.37;99385.47;4959134;28;20109;-45
2022/09/07 07:01:40;;;;;;;9.55;1.30;;;;;;;16.91;76.65;99387.31;4961536;28;20089;-37
2022/09/07 07:04:06;;;;;;;7.50;1.38;;;;;;;17.41;76.63;99394.94;4960558;28;20047;-36
2022/09/07 07:06:35;;;;;;;7.82;1.08;;;;;;;17.99;75.04;99391.59;4955914;28;20050;-36
2022/09/07 07:09:04;;;;;;;9.43;1.40;;;;;;;18.67;73.41;99392.09;4961937;28;20125;-39
2022/09/07 07:11:30;;;;;;;7.10;2.47;;;;;;;19.37;72.40;99391.41;4956143;28;20455;-40
2022/09/07 07:13:57;;;;;;;9.70;1.42;;;;;;;20.02;71.21;99397.78;4961808;28;20113;-45
2022/09/07 07:16:24;;;;;;;11.25;1.13;;;;;;;20.63;70.09;99386.66;4961877;28;20070;-39
2022/09/07 07:18:54;;;;;;;7.78;1.10;;;;;;;21.06;67.82;99393.09;4957549;28;20062;-37
2022/09/07 07:21:22;;;;;;;9.48;1.02;;;;;;;21.39;67.62;99388.59;4956399;28;20113;-39
2022/09/07 07:23:50;;;;;;;9.38;1.75;;;;;;;21.80;66.08;99390.59;4959354;28;20058;-40
2022/09/07 07:26:19;;;;;;;9.95;1.73;;;;;;;22.20;65.09;99379.41;4960629;28;20109;-42
2022/09/07 07:28:49;;;;;;;6.88;0.80;;;;;;;22.62;64.73;99393.59;4958361;28;20058;-41
2022/09/07 07:31:32;;;;;;;13.30;1.45;;;;;;;23.09;63.32;99381.72;4962020;28;20054;-42
2022/09/07 07:33:59;;;;;;;9.70;1.35;;;;;;;23.49;62.11;99388.81;4961253;28;20050;-41
2022/09/07 07:36:27;;;;;;;8.60;1.05;;;;;;;23.84;60.61;99382.06;4965354;28;20042;-50
2022/09/07 07:38:54;;;;;;;8.68;1.45;;;;;;;24.09;60.55;99396.22;4960590;28;20058;-40
2022/09/07 07:41:26;;;;;;;5.55;1.88;;;;;;;24.13;60.00;99386.28;4962441;28;20405;-45
2022/09/07 07:44:12;;;;;;;7.90;1.25;;;;;;;23.95;59.86;99388.41;4956616;28;20069;-42
2022/09/07 07:46:39;;;;;;;9.93;1.63;;;;;;;23.87;59.42;99391.56;4957301;28;20141;-38
2022/09/07 07:49:06;;;;;;;6.72;1.73;;;;;;;23.98;59.41;99396.13;4957269;28;20062;-39
2022/09/07 07:51:32;;;;;;;8.90;1.40;;;;;;;24.09;58.57;99408.59;4957763;28;20047;-44
2022/09/07 07:54:19;;;;;;;8.40;1.27;;;;;;;24.25;58.57;99405.75;4964332;28;20066;-41
2022/09/07 07:56:46;;;;;;;8.50;1.73;;;;;;;24.42;59.12;99406.34;4966132;28;20149;-42
2022/09/07 07:59:12;;;;;;;16.00;2.60;;;;;;;24.57;57.15;99413.19;4964404;28;20138;-42
2022/09/07 08:01:42;;;;;;;9.77;1.38;;;;;;;24.94;56.63;99412.34;4961387;28;20063;-42
2022/09/07 08:04:09;;;;;;;9.77;1.30;;;;;;;25.31;56.68;99422.03;4955498;28;20054;-43
2022/09/07 08:06:36;;;;;;;7.30;1.20;;;;;;;25.70;55.18;99415.66;4962400;28;20056;-44
2022/09/07 08:09:03;;;;;;;11.63;1.52;;;;;;;25.81;53.98;99420.97;4961238;28;20050;-45
2022/09/07 08:11:30;;;;;;;10.13;1.15;;;;;;;25.99;53.56;99415.19;4961309;28;20146;-38
2022/09/07 08:13:59;;;;;;;8.05;1.33;;;;;;;26.35;52.83;99423.94;4957042;28;20153;-40
2022/09/07 08:16:25;;;;;;;6.22;1.02;;;;;;;26.24;53.00;99426.56;4957731;28;20063;-40
2022/09/07 08:18:52;;;;;;;9.63;1.20;;;;;;;25.80;52.55;99419.25;4954942;28;20142;-39
2022/09/07 08:21:19;;;;;;;13.10;2.17;;;;;;;25.24;52.29;99423.44;4959953;28;20052;-41
2022/09/07 08:23:45;;;;;;;10.25;1.65;;;;;;;24.53;53.73;99430.25;4959349;28;20054;-43
2022/09/07 08:26:12;;;;;;;5.28;0.98;;;;;;;23.94;54.92;99431.66;4953965;28;20047;-42
2022/09/07 08:28:40;;;;;;;12.32;1.92;;;;;;;23.52;55.62;99430.03;4958647;28;20112;-40
2022/09/07 08:31:10;;;;;;;9.38;2.10;;;;;;;23.32;56.49;99429.53;4957018;28;20046;-42
2022/09/07 08:33:38;;;;;;;13.80;2.22;;;;;;;23.21;56.85;99432.03;4964035;28;20046;-43
2022/09/07 08:36:07;;;;;;;10.80;1.25;;;;;;;22.99;57.00;99422.88;4963422;28;20475;-41
2022/09/07 08:38:35;;;;;;;6.68;1.13;;;;;;;22.94;57.39;99424.97;4953687;28;20133;-40
2022/09/07 08:41:20;;;;;;;8.10;1.30;;;;;;;22.85;58.06;99422.00;4959592;28;20142;-41
2022/09/07 08:49:17;;;;;;;8.38;2.40;;;;;;;24.54;56.52;99418.69;5042135;27;20393;-40
2022/09/07 08:54:21;;;;;;;8.25;1.20;;;;;;;24.35;55.08;99430.59;5112996;27;20411;-44
2022/09/07 08:56:50;;;;;;;10.63;1.60;;;;;;;24.10;54.99;99419.06;5065528;27;20077;-40
2022/09/07 09:02:16;;;;;;;8.80;1.63;;;;;;;24.05;54.67;99421.19;5015990;27;20418;-48
2022/09/07 09:05:04;;;;;;;5.50;1.33;;;;;;;23.90;54.75;99409.00;5004828;28;20061;-42
2022/09/07 09:07:58;;;;;;;6.65;0.85;;;;;;;24.12;54.39;99416.34;5013543;28;20073;-41
2022/09/07 09:10:35;;;;;;;7.97;1.23;;;;;;;24.38;54.29;99411.00;5015474;28;20566;-42
2022/09/07 09:21:18;;;;;;;4.45;1.73;;;;;;;25.62;52.42;99414.44;5034996;27;20900;-45
2022/09/07 09:23:47;;;;;;;7.80;2.08;;;;;;;25.26;51.66;99421.53;5035444;28;20037;-51
2022/09/07 09:26:23;;;;;;;;;;;;;;;24.93;52.56;99409.81;5036759;28;20041;-39
2022/09/07 09:28:50;;;;;;;10.20;1.70;;;;;;;24.98;53.55;99412.97;5037046;28;19929;-42
2022/09/07 09:31:34;;;;;;;7.47;1.65;;;;;;;25.25;53.29;99412.72;5032514;28;20172;-46
2022/09/07 09:36:42;;;;;;;6.10;1.48;;;;;;;25.93;52.31;99393.50;5056671;28;20406;-47
2022/09/07 09:39:30;;;;;;;5.90;0.98;;;;;;;26.44;51.51;99401.09;5000387;28;20145;-47
2022/09/07 09:42:13;;;;;;;6.97;1.20;;;;;;;26.68;49.47;99397.44;4982742;28;20050;-44
2022/09/07 09:44:40;;;;;;;;;;;;;;;27.00;48.80;99401.09;4998293;28;20164;-41
2022/09/07 09:47:25;;;;;;;6.60;1.13;;;;;;;27.12;48.33;99394.75;4991435;28;19925;-41
2022/09/07 09:50:00;;;;;;;4.82;0.73;;;;;;;27.32;48.91;99393.09;4987882;28;20057;-45
2022/09/07 09:52:29;;;;;;;6.43;0.90;;;;;;;27.64;48.27;99396.72;4993300;28;20176;-46
2022/09/07 09:55:05;;;;;;;6.15;1.00;;;;;;;27.94;47.51;99392.38;4987712;28;20065;-42
2022/09/07 09:57:57;;;;;;;3.80;0.95;;;;;;;28.26;48.50;99403.84;4988655;28;20537;-42
2022/09/07 10:00:55;;;;;;;4.68;0.60;;;;;;;28.71;47.35;99399.91;4993768;28;20111;-46
2022/09/07 10:03:41;;;;;;;6.47;2.17;;;;;;;28.93;46.18;99395.34;4988904;28;20946;-40
2022/09/07 10:06:28;;;;;;;5.13;1.15;;;;;;;28.94;45.64;99391.69;4987482;28;20050;-52
2022/09/07 10:08:57;;;;;;;4.70;0.75;;;;;;;28.96;45.32;99384.41;5003320;28;20184;-46
2022/09/07 10:11:46;;;;;;;4.28;0.82;;;;;;;29.01;46.31;99401.81;4992926;28;20169;-46
2022/09/07 10:14:41;;;;;;;5.00;0.93;;;;;;;28.89;44.98;99393.91;4975990;28;20038;-41
2022/09/07 10:17:26;;;;;;;5.25;0.60;;;;;;;28.78;45.15;99388.72;4990228;28;20046;-51
2022/09/07 10:19:58;;;;;;;5.72;0.73;;;;;;;28.59;44.46;99390.38;4981401;28;20068;-46
2022/09/07 10:22:44;;;;;;;4.15;1.00;;;;;;;28.46;45.30;99387.94;4975075;28;20165;-43
2022/09/07 10:31:26;;;;;;;6.15;2.42;;;;;;;28.30;45.36;99383.16;5051463;28;20464;-45
2022/09/07 10:49:52;;;;;;;3.83;0.70;;;;;;;27.69;44.90;99365.22;5036603;28;20405;-42
2022/09/07 10:55:29;;;;;;;4.82;1.90;;;;;;;27.01;46.14;99362.94;5048882;27;20782;-42
2022/09/07 11:00:49;;;;;;;6.05;1.80;;;;;;;26.61;46.62;99365.22;5108567;27;20461;-45
2022/09/07 11:14:03;;;;;;;7.30;0.82;;;;;;;27.18;47.58;99349.09;5013672;28;20413;-46
2022/09/07 11:16:48;;;;;;;4.22;1.30;;;;;;;27.27;45.30;99346.63;4984398;28;20093;-41
2022/09/07 11:19:27;;;;;;;3.63;0.90;;;;;;;27.25;46.16;99356.56;4996882;28;20054;-42
2022/09/07 11:27:40;;;;;;;4.22;0.90;;;;;;;26.68;45.68;99350.47;5046941;28;20410;-39
2022/09/07 11:30:17;;;;;;;;;;;;;;;26.34;46.61;99345.25;4997871;28;20128;-44
2022/09/07 11:32:54;;;;;;;3.67;0.68;;;;;;;26.34;46.19;99347.91;4998345;28;19943;-45
2022/09/07 11:35:50;;;;;;;6.00;0.73;;;;;;;26.21;46.96;99341.88;5016434;28;20475;-44
2022/09/07 11:41:09;;;;;;;4.47;0.95;;;;;;;26.28;47.22;99343.09;5062948;27;20373;-43
2022/09/07 11:44:00;;;;;;;5.50;1.02;;;;;;;26.07;45.76;99330.53;5020373;28;20056;-44
2022/09/07 11:49:11;;;;;;;5.53;1.73;;;;;;;25.85;47.47;99337.56;5042390;27;20406;-42
2022/09/07 11:51:45;;;;;;;5.15;2.17;;;;;;;25.83;46.61;99328.03;4993740;28;20097;-43
2022/09/07 11:54:35;;;;;;;3.42;1.02;;;;;;;25.66;47.52;99339.00;4988728;28;20903;-45
2022/09/07 13:16:38;;;;;;;5.78;0.68;;;;;;;24.33;48.13;99296.72;5047175;28;20414;-42
2022/09/07 13:31:12;;;;;;;4.13;2.13;;;;;;;24.02;49.11;99283.88;5093404;27;20955;-40
2022/09/07 13:36:37;;;;;;;8.18;0.75;;;;;;;23.65;51.85;99286.47;5059418;28;22192;-42
2022/09/07 13:39:08;;;;;;;4.88;0.57;;;;;;;23.51;52.86;99298.88;5045112;28;20084;-44
2022/09/07 13:41:41;;;;;;;3.05;0.45;;;;;;;23.19;53.70;99292.16;5053995;28;20108;-48
2022/09/07 13:44:19;;;;;;;1.77;0.45;;;;;;;22.99;53.09;99288.22;5057321;28;20138;-44
2022/09/07 13:52:14;;;;;;;1.52;0.45;;;;;;;22.69;51.47;99270.81;5018902;28;20413;-42
2022/09/07 13:54:57;;;;;;;2.47;0.30;;;;;;;22.78;51.40;99267.59;5018404;28;20307;-42
2022/09/07 14:10:47;;;;;;;2.03;0.50;;;;;;;23.20;49.82;99250.75;5050504;27;20410;-42
2022/09/07 14:13:14;;;;;;;1.80;0.55;;;;;;;23.21;49.82;99258.53;5018257;28;20041;-40
2022/09/07 14:15:43;;;;;;;0.93;0.45;;;;;;;23.29;49.51;99260.66;5034182;28;20140;-46
2022/09/07 14:18:27;;;;;;;1.95;0.40;;;;;;;23.36;49.67;99261.97;5021929;28;20108;-41
2022/09/07 14:20:55;;;;;;;1.02;0.40;;;;;;;23.38;49.99;99261.00;5018290;28;20073;-48
2022/09/07 14:23:28;;;;;;;3.92;0.80;;;;;;;23.38;49.91;99253.09;5016581;28;20048;-39
2022/09/07 14:26:16;;;;;;;2.40;0.57;;;;;;;23.34;50.72;99257.72;5014871;28;20077;-43
2022/09/07 14:28:45;;;;;;;;;;;;;;;23.23;50.66;99259.28;5016671;28;20057;-41
2022/09/07 14:31:15;;;;;;;2.58;0.75;;;;;;;23.39;50.38;99260.06;5022841;28;19952;-40
2022/09/07 14:33:49;;;;;;;2.65;0.30;;;;;;;23.45;50.40;99259.63;5024487;28;20516;-39
2022/09/07 14:36:17;;;;;;;2.15;0.70;;;;;;;23.43;51.21;99256.25;5021185;28;20128;-42
2022/09/07 14:39:05;;;;;;;2.78;0.57;;;;;;;23.39;50.99;99265.34;5019521;28;20060;-42
2022/09/07 14:41:37;;;;;;;4.55;0.70;;;;;;;23.32;51.47;99270.16;5020811;28;20586;-42
2022/09/07 14:44:03;;;;;;;4.40;0.98;;;;;;;23.30;51.31;99265.00;5014500;28;21007;-40
2022/09/07 14:46:33;;;;;;;1.95;0.43;;;;;;;23.34;51.99;99284.97;5014054;28;20157;-41
2022/09/07 14:49:03;;;;;;;4.18;0.60;;;;;;;23.27;51.95;99278.41;5019988;28;20453;-44
2022/09/07 14:51:32;;;;;;;5.60;0.73;;;;;;;23.16;51.64;99265.09;5016567;28;20108;-41
2022/09/07 14:54:06;;;;;;;3.00;1.08;;;;;;;23.07;51.84;99267.41;5017729;28;20057;-41
2022/09/07 14:56:36;;;;;;;2.80;0.40;;;;;;;23.01;51.73;99272.25;5014365;28;20073;-43
2022/09/07 14:59:42;;;;;;;1.23;0.43;;;;;;;22.87;51.52;99265.28;5017394;28;20125;-42
2022/09/07 15:04:46;;;;;;;2.58;1.75;;;;;;;22.87;51.96;99270.56;5029531;28;20410;-41
2022/09/07 15:07:44;;;;;;;1.40;0.98;;;;;;;22.79;51.66;99273.69;4985403;28;20096;-43
2022/09/07 15:10:12;;;;;;;4.15;1.02;;;;;;;22.73;51.56;99267.06;4978953;28;20620;-40
2022/09/07 15:12:42;;;;;;;3.70;1.73;;;;;;;22.68;51.61;99255.94;4982845;28;20074;-42
2022/09/07 15:15:23;;;;;;;4.30;2.17;;;;;;;22.67;51.63;99255.09;4991343;28;20050;-46
2022/09/07 15:17:53;;;;;;;3.10;1.63;;;;;;;22.71;51.67;99255.75;4990744;28;20714;-43
2022/09/07 15:20:41;;;;;;;5.47;1.77;;;;;;;22.73;51.91;99251.22;4985980;28;20070;-41
2022/09/07 15:23:14;;;;;;;3.88;2.25;;;;;;;22.89;51.75;99247.56;4987986;28;20054;-45
2022/09/07 15:25:43;;;;;;;5.13;2.10;;;;;;;23.00;52.22;99242.34;4984961;28;20627;-44
2022/09/07 15:28:27;;;;;;;10.55;7.88;;;;;;;23.05;51.43;99244.69;4981441;28;20057;-42
2022/09/07 15:31:18;;;;;;;4.35;2.05;;;;;;;23.03;51.27;99236.88;4980347;28;20047;-43
2022/09/07 15:34:10;;;;;;;3.35;2.10;;;;;;;23.00;51.78;99231.81;4983476;28;20402;-38
2022/09/07 15:36:38;;;;;;;5.10;1.55;;;;;;;22.93;51.73;99230.56;4982999;28;20060;-39
2022/09/07 15:39:06;;;;;;;3.83;1.45;;;;;;;22.77;52.16;99228.94;4996805;28;20054;-36
2022/09/07 15:41:33;;;;;;;3.90;1.25;;;;;;;22.78;52.50;99225.34;4995512;28;20153;-41